Time;durP1;ratioP1;P1;durP2;ratioP2;P2;SDS_P1;SDS_P2;PMS_P1;PMS_P2;Temp;Humidity;BMP_temperature;BMP_pressure;BME280_temperature;BME280_humidity;BME280_pressure;Samples;Min_cycle;Max_cycle;Signal;HPM_P1;HPM_P2
2022/01/15 00:01:38;;;;;;;;;41.25;38.50;;;;;;;;5142911;27;11592;-72
2022/01/15 00:04:04;;;;;;;;;45.25;40.50;;;;;;;;5142778;27;11733;-72
2022/01/15 00:06:29;;;;;;;;;45.50;41.75;;;;;;;;5142205;27;9699;-72
2022/01/15 00:08:54;;;;;;;;;45.75;37.00;;;;;;;;5142527;27;10389;-72
2022/01/15 00:11:20;;;;;;;;;44.00;39.00;;;;;;;;5142737;27;12345;-75
2022/01/15 00:13:53;;;;;;;;;51.50;44.00;;;;;;;;5142404;27;10544;-77
2022/01/15 00:19:11;;;;;;;;;59.25;49.00;;;;;;;;5117883;27;13935;-73
2022/01/15 00:21:37;;;;;;;;;39.75;36.25;;;;;;;;5141950;27;14581;-72
2022/01/15 00:24:02;;;;;;;;;57.75;45.50;;;;;;;;5142052;27;13241;-71
2022/01/15 00:26:28;;;;;;;;;45.50;42.25;;;;;;;;5142097;27;14668;-71
2022/01/15 00:28:53;;;;;;;;;54.25;40.00;;;;;;;;5141602;27;13300;-72
2022/01/15 00:31:19;;;;;;;;;53.75;42.50;;;;;;;;5141449;27;13510;-72
2022/01/15 00:33:44;;;;;;;;;45.00;36.00;;;;;;;;5141567;27;13063;-72
2022/01/15 00:36:09;;;;;;;;;43.50;36.50;;;;;;;;5141196;27;13245;-72
2022/01/15 00:38:35;;;;;;;;;43.00;39.50;;;;;;;;5140818;27;11597;-72
2022/01/15 00:41:00;;;;;;;;;41.50;34.00;;;;;;;;5141153;27;9740;-72
2022/01/15 00:43:25;;;;;;;;;38.75;33.50;;;;;;;;5142367;27;11584;-72
2022/01/15 00:45:51;;;;;;;;;44.25;36.50;;;;;;;;5142117;27;13303;-72
2022/01/15 00:48:16;;;;;;;;;35.50;32.25;;;;;;;;5141964;27;12910;-73
2022/01/15 00:50:42;;;;;;;;;37.75;34.25;;;;;;;;5141687;27;13412;-73
2022/01/15 00:53:07;;;;;;;;;53.75;46.75;;;;;;;;5142066;27;10365;-74
2022/01/15 00:55:32;;;;;;;;;43.50;38.50;;;;;;;;5139867;27;12940;-72
2022/01/15 00:57:58;;;;;;;;;58.75;43.75;;;;;;;;5141540;27;13295;-73
2022/01/15 01:00:24;;;;;;;;;51.50;44.50;;;;;;;;5141598;27;13238;-72
2022/01/15 01:02:49;;;;;;;;;46.25;42.00;;;;;;;;5140975;27;11676;-73
2022/01/15 01:05:15;;;;;;;;;49.75;44.25;;;;;;;;5141942;27;13407;-73
2022/01/15 01:07:40;;;;;;;;;55.75;44.50;;;;;;;;5139452;27;11742;-73
2022/01/15 01:23:18;;;;;;;;;41.25;37.75;;;;;;;;5140959;27;12269;-72
2022/01/15 01:25:46;;;;;;;;;46.75;41.00;;;;;;;;5140648;27;12182;-72
2022/01/15 01:28:20;;;;;;;;;51.00;37.25;;;;;;;;5140923;27;13443;-73
2022/01/15 01:30:52;;;;;;;;;51.25;43.50;;;;;;;;5141565;27;13380;-73
2022/01/15 01:33:31;;;;;;;;;48.50;44.25;;;;;;;;5140741;27;12356;-73
2022/01/15 01:36:14;;;;;;;;;47.75;41.50;;;;;;;;5141187;27;13382;-72
2022/01/15 01:38:51;;;;;;;;;49.75;43.25;;;;;;;;5140976;27;11505;-72
2022/01/15 01:41:19;;;;;;;;;53.00;41.75;;;;;;;;5140868;27;12759;-72
2022/01/15 01:43:59;;;;;;;;;51.25;42.25;;;;;;;;5141391;27;12711;-72
2022/01/15 01:48:53;;;;;;;;;58.50;46.25;;;;;;;;5140130;27;13313;-72
2022/01/15 01:51:21;;;;;;;;;55.25;43.75;;;;;;;;5140291;27;13321;-73
2022/01/15 01:53:47;;;;;;;;;43.75;41.50;;;;;;;;5141003;27;10517;-72
2022/01/15 01:56:13;;;;;;;;;49.25;42.00;;;;;;;;5140495;27;13328;-72
2022/01/15 01:58:38;;;;;;;;;47.25;41.25;;;;;;;;5138853;27;13358;-72
2022/01/15 02:01:03;;;;;;;;;50.25;43.75;;;;;;;;5140356;27;11427;-72
2022/01/15 02:03:28;;;;;;;;;49.50;42.75;;;;;;;;5140323;27;12666;-72
2022/01/15 02:05:54;;;;;;;;;55.00;45.75;;;;;;;;5140855;27;12718;-72
2022/01/15 02:08:19;;;;;;;;;52.50;45.75;;;;;;;;5140729;27;12436;-74
2022/01/15 02:10:45;;;;;;;;;55.25;46.00;;;;;;;;5139440;27;12190;-73
2022/01/15 02:13:13;;;;;;;;;49.00;39.75;;;;;;;;5140651;27;12504;-73
2022/01/15 02:15:39;;;;;;;;;23.75;21.75;;;;;;;;5140753;27;13383;-73
2022/01/15 02:18:04;;;;;;;;;49.50;44.75;;;;;;;;5140977;27;12185;-73
2022/01/15 02:25:40;;;;;;;;;54.75;46.25;;;;;;;;5144303;27;11439;-73
2022/01/15 02:28:06;;;;;;;;;53.25;44.50;;;;;;;;5143915;27;11600;-72
2022/01/15 02:30:31;;;;;;;;;51.00;45.00;;;;;;;;5143682;27;12971;-72
2022/01/15 02:32:56;;;;;;;;;52.75;47.00;;;;;;;;5143634;27;11360;-71
2022/01/15 02:35:22;;;;;;;;;55.00;46.00;;;;;;;;5143897;27;11786;-72
2022/01/15 02:37:47;;;;;;;;;49.25;44.25;;;;;;;;5141436;27;10894;-72
2022/01/15 02:40:12;;;;;;;;;55.00;44.75;;;;;;;;5141771;27;16880;-72
2022/01/15 02:42:38;;;;;;;;;55.75;46.25;;;;;;;;5141549;27;12683;-72
2022/01/15 02:45:05;;;;;;;;;54.50;44.50;;;;;;;;5144576;27;9546;-73
2022/01/15 02:50:16;;;;;;;;;58.75;46.25;;;;;;;;5143403;27;11419;-72
2022/01/15 02:52:41;;;;;;;;;54.00;43.75;;;;;;;;5143156;27;9590;-72
2022/01/15 02:55:07;;;;;;;;;46.50;43.75;;;;;;;;5143157;27;11542;-71
2022/01/15 02:57:32;;;;;;;;;61.75;48.50;;;;;;;;5143071;27;10326;-72
2022/01/15 02:59:57;;;;;;;;;56.50;45.50;;;;;;;;5143910;27;13218;-72
2022/01/15 03:02:23;;;;;;;;;56.25;45.00;;;;;;;;5143723;27;12356;-72
2022/01/15 03:04:48;;;;;;;;;57.50;46.50;;;;;;;;5144014;27;8780;-72
2022/01/15 03:07:13;;;;;;;;;57.75;46.50;;;;;;;;5143416;27;11966;-72
2022/01/15 03:09:40;;;;;;;;;53.00;46.00;;;;;;;;5143325;27;8792;-72
2022/01/15 03:12:06;;;;;;;;;53.25;45.00;;;;;;;;5143026;27;11468;-72
2022/01/15 03:14:31;;;;;;;;;51.25;44.50;;;;;;;;5143018;27;9544;-73
2022/01/15 03:16:57;;;;;;;;;50.50;41.75;;;;;;;;5142848;27;11685;-73
2022/01/15 03:19:22;;;;;;;;;50.25;43.75;;;;;;;;5143028;27;11393;-72
2022/01/15 03:21:47;;;;;;;;;52.25;44.50;;;;;;;;5143652;27;9546;-73
2022/01/15 03:24:13;;;;;;;;;52.75;42.25;;;;;;;;5143406;27;11761;-72
2022/01/15 03:26:38;;;;;;;;;44.25;37.25;;;;;;;;5143469;27;11722;-72
2022/01/15 03:29:03;;;;;;;;;44.75;41.25;;;;;;;;5141624;27;12769;-72
2022/01/15 03:31:29;;;;;;;;;45.00;34.25;;;;;;;;5142641;27;10550;-71
2022/01/15 03:33:54;;;;;;;;;30.75;29.25;;;;;;;;5142947;27;11377;-73
2022/01/15 03:36:19;;;;;;;;;37.50;34.50;;;;;;;;5143153;27;12218;-73
2022/01/15 03:38:44;;;;;;;;;45.00;38.50;;;;;;;;5142572;27;12423;-73
2022/01/15 03:41:10;;;;;;;;;43.50;37.75;;;;;;;;5142862;27;12461;-73
2022/01/15 03:43:35;;;;;;;;;41.00;37.00;;;;;;;;5142732;27;11385;-73
2022/01/15 03:46:00;;;;;;;;;37.75;37.00;;;;;;;;5142590;27;11370;-73
2022/01/15 03:48:27;;;;;;;;;38.50;37.00;;;;;;;;5142960;27;10176;-74
2022/01/15 03:50:52;;;;;;;;;35.75;32.00;;;;;;;;5142865;27;8943;-73
2022/01/15 03:53:20;;;;;;;;;33.25;32.75;;;;;;;;5143255;27;10405;-73
2022/01/15 03:55:45;;;;;;;;;34.75;33.00;;;;;;;;5142375;27;11488;-73
2022/01/15 03:58:10;;;;;;;;;36.75;34.50;;;;;;;;5142351;27;11460;-73
2022/01/15 04:00:36;;;;;;;;;34.50;32.50;;;;;;;;5142230;27;11388;-72
2022/01/15 04:03:03;;;;;;;;;39.00;34.25;;;;;;;;5142236;27;10639;-72
2022/01/15 04:05:29;;;;;;;;;39.50;35.00;;;;;;;;5142466;27;11716;-72
2022/01/15 04:07:54;;;;;;;;;44.00;37.00;;;;;;;;5141934;27;11561;-72
2022/01/15 04:10:20;;;;;;;;;37.75;36.25;;;;;;;;5142650;27;12348;-72
2022/01/15 08:30:24;;;;;;;;;40.00;39.00;;;;;;;;5150293;27;1386375;-70
2022/01/15 08:32:49;;;;;;;;;41.25;37.25;;;;;;;;5176975;27;23551;-69
2022/01/15 08:35:14;;;;;;;;;40.25;37.75;;;;;;;;5178548;27;11642;-69
2022/01/15 08:37:40;;;;;;;;;42.25;35.75;;;;;;;;5176709;27;10604;-70
2022/01/15 08:40:07;;;;;;;;;36.75;32.50;;;;;;;;5177415;27;8872;-70
2022/01/15 08:42:32;;;;;;;;;44.25;35.25;;;;;;;;5158644;27;16134;-70
2022/01/15 08:44:57;;;;;;;;;47.75;40.00;;;;;;;;5178409;27;13235;-70
2022/01/15 08:47:23;;;;;;;;;44.25;38.25;;;;;;;;5178158;27;12479;-70
2022/01/15 08:49:48;;;;;;;;;46.00;39.25;;;;;;;;5178070;27;12350;-70
2022/01/15 08:52:13;;;;;;;;;41.50;39.50;;;;;;;;5185708;27;10522;-70
2022/01/15 08:54:39;;;;;;;;;49.75;42.75;;;;;;;;5184074;27;11381;-70
2022/01/15 08:57:04;;;;;;;;;43.25;38.75;;;;;;;;5190106;27;12206;-70
2022/01/15 08:59:29;;;;;;;;;43.75;41.00;;;;;;;;5187422;27;10407;-70
2022/01/15 09:01:59;;;;;;;;;37.75;36.00;;;;;;;;5189833;27;12773;-70
2022/01/15 09:04:24;;;;;;;;;38.75;36.00;;;;;;;;5187921;27;10440;-71
2022/01/15 09:06:49;;;;;;;;;41.75;38.50;;;;;;;;5195990;27;8804;-73
2022/01/15 09:09:15;;;;;;;;;43.75;41.75;;;;;;;;5197228;27;14442;-70
2022/01/15 09:11:40;;;;;;;;;49.25;41.25;;;;;;;;5197259;27;12424;-71
2022/01/15 09:14:06;;;;;;;;;36.75;34.50;;;;;;;;5180311;27;13065;-69
2022/01/15 09:16:31;;;;;;;;;44.75;36.50;;;;;;;;5199916;27;13556;-68
2022/01/15 09:18:57;;;;;;;;;39.00;37.50;;;;;;;;5199237;27;11700;-68
2022/01/15 09:21:23;;;;;;;;;28.50;26.75;;;;;;;;5195475;27;12538;-68
2022/01/15 09:23:48;;;;;;;;;49.50;41.75;;;;;;;;5199364;27;13278;-67
2022/01/15 09:26:24;;;;;;;;;47.25;39.75;;;;;;;;5198838;27;10350;-67
2022/01/15 09:31:34;;;;;;;;;43.25;40.75;;;;;;;;5199806;27;12349;-68
2022/01/15 09:33:59;;;;;;;;;42.50;39.75;;;;;;;;5199400;27;13570;-68
2022/01/15 09:36:24;;;;;;;;;48.50;41.75;;;;;;;;5180251;27;13428;-68
2022/01/15 09:38:49;;;;;;;;;48.25;40.00;;;;;;;;5198895;27;9686;-68
2022/01/15 09:41:15;;;;;;;;;50.50;44.00;;;;;;;;5187971;27;10421;-69
2022/01/15 09:43:41;;;;;;;;;51.50;43.25;;;;;;;;5185079;27;12254;-69
2022/01/15 09:46:06;;;;;;;;;61.50;44.00;;;;;;;;5182943;27;11361;-69
2022/01/15 09:48:32;;;;;;;;;57.25;48.50;;;;;;;;5173964;27;13225;-69
2022/01/15 09:50:57;;;;;;;;;52.50;45.50;;;;;;;;5173520;27;13274;-68
2022/01/15 09:53:23;;;;;;;;;50.25;43.00;;;;;;;;5176355;27;10627;-69
2022/01/15 09:55:48;;;;;;;;;58.25;48.50;;;;;;;;5172727;27;11870;-69
2022/01/15 09:58:14;;;;;;;;;50.50;42.75;;;;;;;;5175652;27;11853;-68
2022/01/15 10:00:40;;;;;;;;;54.75;45.00;;;;;;;;5172713;27;12836;-68
2022/01/15 10:03:05;;;;;;;;;54.75;47.50;;;;;;;;5174415;27;11427;-69
2022/01/15 10:05:30;;;;;;;;;58.50;46.25;;;;;;;;5174264;27;9508;-69
2022/01/15 10:08:16;;;;;;;;;64.25;52.75;;;;;;;;5172162;27;12465;-69
2022/01/15 10:10:47;;;;;;;;;55.50;46.50;;;;;;;;5171648;27;13682;-69
2022/01/15 10:13:17;;;;;;;;;65.00;49.75;;;;;;;;5173395;27;13450;-69
2022/01/15 10:15:44;;;;;;;;;56.75;47.25;;;;;;;;5173233;27;13350;-69
2022/01/15 10:18:24;;;;;;;;;61.00;49.25;;;;;;;;5154718;27;12704;-69
2022/01/15 10:20:49;;;;;;;;;58.25;47.00;;;;;;;;5154552;27;14282;-70
2022/01/15 10:23:17;;;;;;;;;53.50;44.75;;;;;;;;5172113;27;13297;-70
2022/01/15 10:25:42;;;;;;;;;61.25;49.50;;;;;;;;5173729;27;11665;-69
2022/01/15 10:28:09;;;;;;;;;48.25;43.25;;;;;;;;5154330;27;15231;-70
2022/01/15 10:30:35;;;;;;;;;59.75;49.25;;;;;;;;5172265;27;13303;-68
2022/01/15 10:33:04;;;;;;;;;61.50;49.00;;;;;;;;5171802;27;11390;-69
2022/01/15 10:35:40;;;;;;;;;59.75;49.25;;;;;;;;5173174;27;13316;-68
2022/01/15 10:38:10;;;;;;;;;61.75;50.25;;;;;;;;5174143;27;14506;-69
2022/01/15 10:40:43;;;;;;;;;64.00;50.00;;;;;;;;5173882;27;10564;-69
2022/01/15 10:43:09;;;;;;;;;64.50;52.25;;;;;;;;5172885;27;11812;-68
2022/01/15 10:45:35;;;;;;;;;65.00;52.25;;;;;;;;5153393;27;11010;-69
2022/01/15 10:48:02;;;;;;;;;62.50;51.00;;;;;;;;5174355;27;8874;-68
2022/01/15 10:50:32;;;;;;;;;59.75;48.50;;;;;;;;5171849;27;11632;-68
2022/01/15 10:52:58;;;;;;;;;64.75;52.75;;;;;;;;5170147;27;13360;-69
2022/01/15 10:55:33;;;;;;;;;62.75;52.25;;;;;;;;5174320;27;13359;-69
2022/01/15 10:58:06;;;;;;;;;62.25;51.00;;;;;;;;5174003;27;11517;-69
2022/01/15 11:00:37;;;;;;;;;65.00;50.75;;;;;;;;5168184;27;10641;-70
2022/01/15 11:03:03;;;;;;;;;64.50;50.75;;;;;;;;5162906;27;11454;-69
2022/01/15 11:05:32;;;;;;;;;63.75;52.00;;;;;;;;5163332;27;8955;-70
2022/01/15 11:08:06;;;;;;;;;61.75;51.25;;;;;;;;5160940;27;11466;-71
2022/01/15 11:10:37;;;;;;;;;66.25;50.25;;;;;;;;5183051;27;11477;-73
2022/01/15 11:13:06;;;;;;;;;63.50;50.50;;;;;;;;5164317;27;12208;-72
2022/01/15 11:15:32;;;;;;;;;61.25;51.00;;;;;;;;5164175;27;13713;-73
2022/01/15 11:17:58;;;;;;;;;59.00;50.33;;;;;;;;5161985;27;11424;-72
2022/01/15 11:20:29;;;;;;;;;61.00;49.00;;;;;;;;5164142;27;13226;-72
2022/01/15 11:22:55;;;;;;;;;58.67;48.67;;;;;;;;5171373;27;13306;-73
2022/01/15 11:25:20;;;;;;;;;56.67;48.00;;;;;;;;5171292;27;13264;-73
2022/01/15 11:27:45;;;;;;;;;61.00;49.00;;;;;;;;5153713;27;11969;-72
2022/01/15 11:30:12;;;;;;;;;59.33;47.33;;;;;;;;5170202;27;12197;-73
2022/01/15 11:32:40;;;;;;;;;56.75;45.50;;;;;;;;5143372;27;15260;-72
2022/01/15 11:35:07;;;;;;;;;56.33;46.00;;;;;;;;5162292;27;11664;-71
2022/01/15 11:37:46;;;;;;;;;58.50;46.25;;;;;;;;5165439;27;11476;-72
2022/01/15 11:40:30;;;;;;;;;52.00;43.50;;;;;;;;5181163;27;11982;-72
2022/01/15 11:42:55;;;;;;;;;51.75;43.50;;;;;;;;5181388;27;13255;-72
2022/01/15 11:45:36;;;;;;;;;51.00;42.75;;;;;;;;5179379;27;11559;-72
2022/01/15 11:48:33;;;;;;;;;52.00;42.50;;;;;;;;5151452;27;11762;-72
2022/01/15 11:51:13;;;;;;;;;52.75;42.25;;;;;;;;5151619;27;13428;-74
2022/01/15 11:53:48;;;;;;;;;53.00;42.75;;;;;;;;5175088;27;11460;-75
2022/01/15 11:56:17;;;;;;;;;49.00;42.00;;;;;;;;5172679;27;11550;-76
2022/01/15 11:58:43;;;;;;;;;55.50;45.00;;;;;;;;5169976;27;13464;-74
2022/01/15 12:01:28;;;;;;;;;56.67;46.33;;;;;;;;5176154;27;13894;-75
2022/01/15 12:04:13;;;;;;;;;57.00;47.00;;;;;;;;5173171;27;11538;-74
2022/01/15 12:06:57;;;;;;;;;45.33;36.33;;;;;;;;5149596;27;13667;-72
2022/01/15 12:09:39;;;;;;;;;59.00;47.00;;;;;;;;5171721;27;14779;-75
2022/01/15 12:12:31;;;;;;;;;60.33;50.33;;;;;;;;5181667;27;13828;-76
2022/01/15 12:14:56;;;;;;;;;58.33;48.00;;;;;;;;5157865;27;13783;-75
2022/01/15 12:17:30;;;;;;;;;63.33;51.33;;;;;;;;5160408;27;15005;-76
2022/01/15 12:19:55;;;;;;;;;56.00;47.67;;;;;;;;5168684;27;13819;-75
2022/01/15 12:22:37;;;;;;;;;62.33;49.00;;;;;;;;5178698;27;13237;-74
2022/01/15 12:25:03;;;;;;;;;58.33;48.67;;;;;;;;5149707;27;13648;-75
2022/01/15 12:27:29;;;;;;;;;57.33;47.33;;;;;;;;5169966;27;13362;-74
2022/01/15 12:30:07;;;;;;;;;57.67;46.00;;;;;;;;5166057;27;11473;-74
2022/01/15 12:32:38;;;;;;;;;59.33;47.00;;;;;;;;5160554;27;12224;-74
2022/01/15 12:35:04;;;;;;;;;58.00;47.33;;;;;;;;5168181;27;10460;-74
2022/01/15 12:37:29;;;;;;;;;62.67;49.33;;;;;;;;5178380;27;11476;-75
2022/01/15 12:39:55;;;;;;;;;69.67;55.00;;;;;;;;5181450;27;12236;-73
2022/01/15 12:42:28;;;;;;;;;60.00;49.00;;;;;;;;5181549;27;12196;-72
2022/01/15 12:44:53;;;;;;;;;58.33;47.00;;;;;;;;5181654;27;11497;-74
2022/01/15 12:47:20;;;;;;;;;58.00;46.00;;;;;;;;5181569;27;12215;-75
2022/01/15 12:49:48;;;;;;;;;57.67;47.33;;;;;;;;5174936;27;9648;-73
2022/01/15 12:52:15;;;;;;;;;55.67;46.00;;;;;;;;5172126;27;11629;-73
2022/01/15 12:54:41;;;;;;;;;58.33;47.33;;;;;;;;5173722;27;11656;-74
2022/01/15 12:57:06;;;;;;;;;53.33;44.67;;;;;;;;5171689;27;12731;-74
2022/01/15 12:59:35;;;;;;;;;52.00;43.67;;;;;;;;5155100;27;13430;-72
2022/01/15 13:02:02;;;;;;;;;55.00;45.00;;;;;;;;5171721;27;10624;-74
2022/01/15 13:04:27;;;;;;;;;48.67;40.00;;;;;;;;5171835;27;11707;-70
2022/01/15 13:06:59;;;;;;;;;54.00;45.33;;;;;;;;5174300;27;12196;-74
2022/01/15 13:09:37;;;;;;;;;60.00;47.33;;;;;;;;5171095;27;13409;-75
2022/01/15 13:12:03;;;;;;;;;53.00;44.00;;;;;;;;5174307;27;10944;-74
2022/01/15 13:14:35;;;;;;;;;43.00;40.00;;;;;;;;5171103;27;13283;-74
2022/01/15 13:17:00;;;;;;;;;54.33;46.33;;;;;;;;5177330;27;10753;-71
2022/01/15 13:19:35;;;;;;;;;51.33;44.33;;;;;;;;5176907;27;13233;-73
2022/01/15 13:22:01;;;;;;;;;53.33;44.33;;;;;;;;5178848;27;9580;-75
2022/01/15 13:24:26;;;;;;;;;51.33;42.00;;;;;;;;5173112;27;8811;-74
2022/01/15 13:26:52;;;;;;;;;41.00;38.67;;;;;;;;5167959;27;11384;-75
2022/01/15 13:29:19;;;;;;;;;46.67;41.33;;;;;;;;5184056;27;13633;-73
2022/01/15 13:31:46;;;;;;;;;41.33;39.67;;;;;;;;5184004;27;12515;-72
2022/01/15 13:34:15;;;;;;;;;43.67;36.00;;;;;;;;5173492;27;12457;-72
2022/01/15 13:36:42;;;;;;;;;42.33;36.00;;;;;;;;5184531;27;11656;-72
2022/01/15 13:39:08;;;;;;;;;37.67;37.67;;;;;;;;5184676;27;9099;-73
2022/01/15 13:41:35;;;;;;;;;40.33;33.67;;;;;;;;5183694;27;13475;-71
2022/01/15 13:44:08;;;;;;;;;36.33;35.00;;;;;;;;5184778;27;12454;-75
2022/01/15 13:46:35;;;;;;;;;45.67;35.67;;;;;;;;5185068;27;13534;-71
2022/01/15 13:49:09;;;;;;;;;42.00;40.33;;;;;;;;5183910;27;13560;-72
2022/01/15 13:54:27;;;;;;;;;38.33;36.33;;;;;;;;5184865;27;12255;-73
2022/01/15 13:56:56;;;;;;;;;46.33;40.00;;;;;;;;5184580;27;13443;-75
2022/01/15 13:59:23;;;;;;;;;61.00;40.00;;;;;;;;5184405;27;13323;-74
2022/01/15 14:01:50;;;;;;;;;39.67;38.00;;;;;;;;5183890;27;10598;-73
2022/01/15 14:04:33;;;;;;;;;46.00;42.67;;;;;;;;5184710;27;13540;-73
2022/01/15 14:07:03;;;;;;;;;34.67;29.67;;;;;;;;5183678;27;14597;-74
2022/01/15 14:09:29;;;;;;;;;42.00;35.00;;;;;;;;5183870;27;12455;-72
2022/01/15 14:12:03;;;;;;;;;42.00;38.00;;;;;;;;5184462;27;13734;-72
2022/01/15 14:14:29;;;;;;;;;65.00;52.67;;;;;;;;5184390;27;8762;-72
2022/01/15 14:16:56;;;;;;;;;69.33;57.33;;;;;;;;5184697;27;13807;-72
2022/01/15 14:19:50;;;;;;;;;50.33;40.00;;;;;;;;5184879;27;11453;-74
2022/01/15 14:22:22;;;;;;;;;53.67;45.33;;;;;;;;5183191;27;13391;-73
2022/01/15 14:24:49;;;;;;;;;49.33;38.33;;;;;;;;5184167;27;11866;-73
2022/01/15 14:27:16;;;;;;;;;37.00;35.00;;;;;;;;5184391;27;12547;-72
2022/01/15 14:29:41;;;;;;;;;41.33;32.00;;;;;;;;5183399;27;14706;-73
2022/01/15 14:32:07;;;;;;;;;37.67;37.67;;;;;;;;5184447;27;12386;-75
2022/01/15 14:34:32;;;;;;;;;41.67;38.00;;;;;;;;5184133;27;13427;-73
2022/01/15 14:36:57;;;;;;;;;40.67;35.33;;;;;;;;5179789;27;13361;-75
2022/01/15 14:39:23;;;;;;;;;38.00;33.67;;;;;;;;5183823;27;11386;-75
2022/01/15 14:41:48;;;;;;;;;39.67;35.67;;;;;;;;5183436;27;13246;-75
2022/01/15 14:44:14;;;;;;;;;34.00;32.00;;;;;;;;5183801;27;10354;-76
2022/01/15 14:46:40;;;;;;;;;37.33;31.67;;;;;;;;5183644;27;11432;-74
2022/01/15 14:49:05;;;;;;;;;35.00;33.33;;;;;;;;5180413;27;12803;-76
2022/01/15 14:51:30;;;;;;;;;30.33;29.33;;;;;;;;5163284;27;12672;-76
2022/01/15 14:53:55;;;;;;;;;42.33;36.00;;;;;;;;5163609;27;11807;-74
2022/01/15 14:56:21;;;;;;;;;34.33;33.00;;;;;;;;5161360;27;13388;-73
2022/01/15 14:58:47;;;;;;;;;34.00;30.67;;;;;;;;5182487;27;10519;-74
2022/01/15 15:01:12;;;;;;;;;39.67;32.67;;;;;;;;5183804;27;10373;-74
2022/01/15 15:03:38;;;;;;;;;36.00;29.33;;;;;;;;5179821;27;10341;-73
2022/01/15 15:06:04;;;;;;;;;34.75;28.75;;;;;;;;5167743;27;12269;-73
2022/01/15 15:08:30;;;;;;;;;28.75;28.00;;;;;;;;5170212;27;10620;-73
2022/01/15 15:10:55;;;;;;;;;39.33;34.33;;;;;;;;5180733;27;13307;-72
2022/01/15 15:13:24;;;;;;;;;35.25;33.00;;;;;;;;5162204;27;16379;-72
2022/01/15 15:15:49;;;;;;;;;34.75;27.75;;;;;;;;5180705;27;11985;-78
2022/01/15 15:18:15;;;;;;;;;26.75;24.50;;;;;;;;5161852;27;16022;-71
2022/01/15 15:20:40;;;;;;;;;35.00;28.67;;;;;;;;5181424;27;13224;-70
2022/01/15 15:23:05;;;;;;;;;34.00;32.67;;;;;;;;5179250;27;13383;-77
2022/01/15 15:25:31;;;;;;;;;41.00;32.67;;;;;;;;5183219;27;9547;-74
2022/01/15 15:27:56;;;;;;;;;52.67;44.00;;;;;;;;5183123;27;8917;-72
2022/01/15 15:30:21;;;;;;;;;38.00;35.33;;;;;;;;5167376;27;13442;-76
2022/01/15 15:32:47;;;;;;;;;28.00;25.75;;;;;;;;5161796;27;13242;-75
2022/01/15 15:35:13;;;;;;;;;24.67;20.00;;;;;;;;5161888;27;12699;-78
2022/01/15 15:37:38;;;;;;;;;32.00;26.75;;;;;;;;5142400;27;12570;-82
2022/01/15 15:40:05;;;;;;;;;29.75;29.50;;;;;;;;5168687;27;13331;-75
2022/01/15 15:42:30;;;;;;;;;31.50;28.50;;;;;;;;5160553;27;15482;-77
2022/01/15 15:44:55;;;;;;;;;36.33;36.00;;;;;;;;5162942;27;12644;-77
2022/01/15 15:47:21;;;;;;;;;42.33;34.33;;;;;;;;5171627;27;12489;-76
2022/01/15 15:49:46;;;;;;;;;48.33;39.33;;;;;;;;5164424;27;13419;-75
2022/01/15 15:52:12;;;;;;;;;47.33;39.00;;;;;;;;5161856;27;10295;-76
2022/01/15 15:54:37;;;;;;;;;44.33;40.00;;;;;;;;5163217;27;11424;-77
2022/01/15 15:57:04;;;;;;;;;38.33;32.33;;;;;;;;5158478;27;11110;-77
2022/01/15 15:59:29;;;;;;;;;44.00;35.33;;;;;;;;5181863;27;13499;-77
2022/01/15 16:01:55;;;;;;;;;37.67;34.33;;;;;;;;5175566;27;12336;-76
2022/01/15 16:04:20;;;;;;;;;36.67;30.00;;;;;;;;5178999;27;12358;-77
2022/01/15 16:06:45;;;;;;;;;39.67;32.67;;;;;;;;5163392;27;13652;-76
2022/01/15 16:09:11;;;;;;;;;32.00;24.33;;;;;;;;5181961;27;11529;-77
2022/01/15 16:11:37;;;;;;;;;39.67;35.33;;;;;;;;5182543;27;13640;-77
2022/01/15 16:14:05;;;;;;;;;38.33;33.67;;;;;;;;5182977;27;11444;-76
2022/01/15 16:16:33;;;;;;;;;69.33;54.33;;;;;;;;5181912;27;12622;-78
2022/01/15 16:18:58;;;;;;;;;39.00;37.67;;;;;;;;5182281;27;13517;-78
2022/01/15 16:21:24;;;;;;;;;38.67;36.33;;;;;;;;5181712;27;13363;-78
2022/01/15 16:23:50;;;;;;;;;40.00;36.33;;;;;;;;5182995;27;11698;-78
2022/01/15 16:26:15;;;;;;;;;48.33;40.00;;;;;;;;5181986;27;10169;-79
2022/01/15 16:28:40;;;;;;;;;40.00;35.33;;;;;;;;5181995;27;12412;-79
2022/01/15 16:31:06;;;;;;;;;39.67;31.67;;;;;;;;5182513;27;12202;-77
2022/01/15 16:33:31;;;;;;;;;42.67;39.67;;;;;;;;5181754;27;13490;-77
2022/01/15 16:35:59;;;;;;;;;38.67;35.00;;;;;;;;5182572;27;10495;-76
2022/01/15 16:38:26;;;;;;;;;47.00;37.33;;;;;;;;5162713;27;13771;-77
2022/01/15 16:40:55;;;;;;;;;47.00;44.00;;;;;;;;5182249;27;15238;-85
2022/01/15 16:43:20;;;;;;;;;41.00;39.67;;;;;;;;5163401;27;12416;-82
2022/01/15 16:45:46;;;;;;;;;29.00;28.00;;;;;;;;5182340;27;12248;-79
2022/01/15 16:48:11;;;;;;;;;34.00;28.67;;;;;;;;5182396;27;13545;-78
2022/01/15 16:50:38;;;;;;;;;35.33;31.67;;;;;;;;5183272;27;13231;-73
2022/01/15 16:53:03;;;;;;;;;34.67;26.67;;;;;;;;5186383;27;11497;-72
2022/01/15 16:55:28;;;;;;;;;44.00;32.67;;;;;;;;5186301;27;11373;-73
2022/01/15 16:57:54;;;;;;;;;38.33;34.00;;;;;;;;5186425;27;13142;-78
2022/01/15 17:00:21;;;;;;;;;40.33;37.33;;;;;;;;5186773;27;13467;-78
2022/01/15 17:02:47;;;;;;;;;44.00;40.33;;;;;;;;5185306;27;13324;-76
2022/01/15 17:05:13;;;;;;;;;45.67;40.67;;;;;;;;5185799;27;11411;-80
2022/01/15 17:07:38;;;;;;;;;58.67;46.67;;;;;;;;5185704;27;11380;-75
2022/01/15 17:10:04;;;;;;;;;49.00;44.00;;;;;;;;5185666;27;10431;-72
2022/01/15 17:12:30;;;;;;;;;62.33;48.00;;;;;;;;5184886;27;13457;-71
2022/01/15 17:14:55;;;;;;;;;66.33;53.67;;;;;;;;5174721;27;12268;-74
2022/01/15 17:17:20;;;;;;;;;70.67;55.67;;;;;;;;5177817;27;12202;-79
2022/01/15 17:19:47;;;;;;;;;67.33;52.00;;;;;;;;5175488;27;12408;-78
2022/01/15 17:22:13;;;;;;;;;67.67;53.33;;;;;;;;5149043;27;16505;-76
2022/01/15 17:24:39;;;;;;;;;71.33;55.67;;;;;;;;5177595;27;10475;-75
2022/01/15 17:27:04;;;;;;;;;60.67;49.00;;;;;;;;5176098;27;13249;-77
2022/01/15 17:29:29;;;;;;;;;66.00;52.00;;;;;;;;5176022;27;13634;-72
2022/01/15 17:31:54;;;;;;;;;73.33;56.00;;;;;;;;5174740;27;12723;-72
2022/01/15 17:34:20;;;;;;;;;68.00;54.33;;;;;;;;5177409;27;12257;-73
2022/01/15 17:36:45;;;;;;;;;65.33;54.00;;;;;;;;5180670;27;13234;-72
2022/01/15 17:39:10;;;;;;;;;72.33;54.00;;;;;;;;5185084;27;11394;-72
2022/01/15 17:41:36;;;;;;;;;64.33;52.00;;;;;;;;5184496;27;8804;-71
2022/01/15 17:44:01;;;;;;;;;69.00;53.33;;;;;;;;5182236;27;11467;-73
2022/01/15 17:46:26;;;;;;;;;63.00;51.67;;;;;;;;5184441;27;11388;-71
2022/01/15 17:48:52;;;;;;;;;65.33;48.33;;;;;;;;5184869;27;11572;-73
2022/01/15 17:51:18;;;;;;;;;65.67;54.00;;;;;;;;5185350;27;12168;-73
2022/01/15 17:53:43;;;;;;;;;62.00;48.33;;;;;;;;5165734;27;14735;-75
2022/01/15 17:56:09;;;;;;;;;60.00;50.33;;;;;;;;5184316;27;12183;-74
2022/01/15 17:58:37;;;;;;;;;64.67;51.67;;;;;;;;5165315;27;9893;-75
2022/01/15 18:01:04;;;;;;;;;64.00;48.33;;;;;;;;5180804;27;11449;-72
2022/01/15 18:03:30;;;;;;;;;67.67;54.00;;;;;;;;5184765;27;12441;-70
2022/01/15 18:05:56;;;;;;;;;66.00;54.00;;;;;;;;5184466;27;12190;-72
2022/01/15 18:08:21;;;;;;;;;69.33;55.00;;;;;;;;5184082;27;8958;-73
2022/01/15 18:10:47;;;;;;;;;71.25;56.50;;;;;;;;5184459;27;10340;-72
2022/01/15 18:13:12;;;;;;;;;72.00;57.67;;;;;;;;5174082;27;13610;-72
2022/01/15 18:15:37;;;;;;;;;72.75;57.25;;;;;;;;5184123;27;13044;-71
2022/01/15 18:18:03;;;;;;;;;78.75;61.00;;;;;;;;5184411;27;8766;-71
2022/01/15 18:20:28;;;;;;;;;71.50;59.25;;;;;;;;5175358;27;13345;-72
2022/01/15 18:22:53;;;;;;;;;79.75;64.00;;;;;;;;5173581;27;12191;-72
2022/01/15 18:25:19;;;;;;;;;80.75;64.00;;;;;;;;5170795;27;13013;-69
2022/01/15 18:27:44;;;;;;;;;81.50;65.75;;;;;;;;5172961;27;8814;-70
2022/01/15 18:30:11;;;;;;;;;85.00;65.50;;;;;;;;5174019;27;12539;-70
2022/01/15 18:32:36;;;;;;;;;54.25;43.75;;;;;;;;5170128;27;12582;-69
2022/01/15 18:35:02;;;;;;;;;86.25;65.25;;;;;;;;5172335;27;13229;-71
2022/01/15 18:37:30;;;;;;;;;82.25;63.75;;;;;;;;5172473;27;12184;-71
2022/01/15 18:39:55;;;;;;;;;73.75;60.50;;;;;;;;5170598;27;11639;-69
2022/01/15 18:42:21;;;;;;;;;76.25;61.50;;;;;;;;5175366;27;13204;-69
2022/01/15 18:44:46;;;;;;;;;62.00;50.75;;;;;;;;5172000;27;9688;-69
2022/01/15 18:47:11;;;;;;;;;72.00;58.25;;;;;;;;5170176;27;13249;-69
2022/01/15 18:49:36;;;;;;;;;76.50;59.25;;;;;;;;5172083;27;12337;-69
2022/01/15 18:52:02;;;;;;;;;70.00;54.50;;;;;;;;5168182;27;10451;-68
2022/01/15 18:54:28;;;;;;;;;68.00;55.00;;;;;;;;5173773;27;10891;-70
2022/01/15 18:56:53;;;;;;;;;69.75;53.50;;;;;;;;5171474;27;13591;-69
2022/01/15 18:59:19;;;;;;;;;70.50;55.75;;;;;;;;5171951;27;11772;-70
2022/01/15 19:01:45;;;;;;;;;68.75;51.50;;;;;;;;5168892;27;13442;-70
2022/01/15 19:04:10;;;;;;;;;73.50;56.00;;;;;;;;5172665;27;13651;-71
2022/01/15 19:06:36;;;;;;;;;68.50;51.25;;;;;;;;5172540;27;13419;-71
2022/01/15 19:09:02;;;;;;;;;14.00;8.00;;;;;;;;5169735;27;13253;-71